Terminal Aerodrome Forecast
Issued by NWS

Home | Current Version | Previous Version | Graphics & Text | Print | Product List | Glossary On
Versions: 1 2 3 4 5 6 7 8 9 10 11 12 13 14 15
606
FTUS43 KLSX 272327
TAFSUS
TAF
KSUS 272327Z 2800/2824 26008KT P6SM SKC
     FM280100 VRB04KT P6SM SKC
     FM281400 33007KT P6SM SCT250
     FM281800 34012G18KT P6SM SCT050 SCT250=

USA.gov is the U.S. government's official web portal to all federal, state and local government web resources and services.